Tiempo atmosférico en la estación meteorológica de Agaete, Las Palmas (5 m.)



Fecha
DESCASC
Temp. máxima en grados centígrados (hora)
DESCASC
Temp. mínima en grados centígrados (hora)
DESCASC
Temp. media en grados centígrados
DESCASC
Racha de viento máxima en m/sg (hora)
DESCASC
Velocidad máxima media en intervalos de 10 minutos(hora)
DESCASC
Precipitaciones diarias en mm
DESCASC
Precipitaciones de 00:00 a 06:00 en mm
DESCASC
Precipitaciones de 06:00 a 12:00 en mm
DESCASC
Precipitaciones de 12:00 a 18:00 en mm
DESCASC
Precipitaciones de 18:00 a 24:00 en mm
DESCASC
19-04-2018 22.2 (10:40) 17.6 (21:30) 19.9 12.78 (11:10) 8.61 (11:30) 0.2 0 0 0 0.2
18-04-2018 22 (17:20) 17.8 (05:20) 19.9 12.22 (17:50) 9.17 (18:20) 0 0 0 0 0
17-04-2018 22.6 (12:40) 17.3 (05:30) 19.9 12.78 (14:50) 8.89 (14:50) 0 0 0 0 0
16-04-2018 22.8 (17:00) 17.4 (07:00) 20.1 15.28 (09:30) 8.89 (11:20) 0 0 0 0 0
15-04-2018 21.1 (15:20) 16.7 (00:00) 18.9 18.89 (11:10) 8.89 (13:50) 0 0 0 0 0
14-04-2018 20.6 (15:00) 16.5 (00:00) 18.6 10.83 (18:50) 6.39 (14:20) 0 0 0 0 0
13-04-2018 20.9 (17:20) 16.8 (00:00) 18.8 10 (15:30) 6.94 (15:20) 0.2 0.2 0 0 0
12-04-2018 21.1 (16:00) 17 (00:00) 19.1 10 (15:10) 6.39 (15:50) 1.6 1.6 0 0 0
11-04-2018 20.3 (15:10) 16.8 (00:00) 18.5 10.28 (09:00) 6.11 (09:00) 0.2 0 0 0 0.2
10-04-2018 20.1 (15:40) 15.3 (00:00) 17.7 12.5 (02:40) 6.39 (13:50) 0.4 0.4 0 0 0
09-04-2018 19.2 (14:30) 15.3 (00:00) 17.3 14.72 (17:30) 8.89 (16:50) 1 0.8 0.2 0 0
08-04-2018 20.2 (14:50) 16.7 (00:00) 18.5 13.89 (17:10) 9.17 (22:30) 0.8 0 0 0 0.8
07-04-2018 20.1 (15:20) 17 (00:00) 18.6 12.78 (16:10) 7.78 (16:10) 0.2 0.2 0 0 0
06-04-2018 21.2 (17:00) 16 (00:00) 18.6 8.61 (21:50) 6.39 (22:00) 0 0 0 0 0
05-04-2018 21 (13:30) 16.9 (00:00) 18.9 12.5 (16:40) 8.06 (16:30) 0 0 0 0 0
04-04-2018 21.1 (12:20) 17.4 (00:00) 19.3 14.17 (13:10) 7.78 (19:40) 0 0 0 0 0
03-04-2018 20.8 (11:50) 16.4 (00:00) 18.6 10.83 (15:10) 8.33 (14:20) 0 0 0 0 0
02-04-2018 21.8 (10:30) 16.6 (00:00) 19.2 9.72 (16:10) 6.39 (15:40) 0 0 0 0 0
01-04-2018 21.6 (18:10) 15.5 (00:00) 18.6 5.28 (00:10) 3.33 (15:00) 0 0 0 0 0
31-03-2018 22.7 (18:50) 16.4 (00:00) 19.6 15.56 (05:10) 9.44 (01:40) 0 0 0 0 0
30-03-2018 20.2 (14:00) 16.5 (00:00) 18.4 18.33 (16:10) 10.83 (15:50) 0 0 0 0 0
29-03-2018 28.6 (01:40) 18 (00:00) 23.3 15.28 (21:50) 10.28 (21:50) 0 0 0 0 0
28-03-2018 24.1 (15:50) 18 (00:00) 21.1 6.94 (03:00) 3.89 (03:00) 0 0 0 0 0
27-03-2018 20.2 (14:10) 16.4 (00:00) 18.3 16.67 (10:20) 10.28 (10:50) 0 0 0 0 0
26-03-2018 19.3 (16:50) 16.9 (00:00) 18.1 18.33 (16:10) 9.17 (17:00) 0.4 0.4 0 0 0
25-03-2018 18.8 (16:00) 16.7 (00:00) 17.8 13.61 (08:50) 7.22 (06:30) 0 0 0 0 0
24-03-2018 21.5 (13:10) 17.3 (00:00) 19.4 11.39 (12:10) 6.67 (14:30) 0 0 0 0 0
23-03-2018 19.5 (15:50) 15.3 (00:00) 17.4 13.33 (15:10) 8.33 (10:30) 0 0 0 0 0

Gráficas

Temp. máximas Temp. mínimas Temp. medias Precipitaciones Rachas de viento máximas Velocidades máximas media en intervalos de 10 minutos

Datos horarios

Fecha y hora oficial Temperatura (ºC) Velocidad del viento (km/h) Dirección del viento Racha (km/h) Dirección de racha Precipitación (mm) Presión (hPa) Tendencia (hPa) Humedad (%)
2018-04-21 23:00:00 18.6 12 Norte 22 Norte 0 -- -- 79
2018-04-21 22:00:00 18.9 7 Nordeste 13 Este 0 -- -- 71
2018-04-21 21:00:00 18.8 5 Este 12 Nordeste 0 -- -- 67
2018-04-21 20:00:00 19.1 4 Este 17 Norte 0 -- -- 66
2018-04-21 19:00:00 19.8 4 Sur 9 Oeste 0 -- -- 64
2018-04-21 18:00:00 20.1 4 Oeste 12 Sudoeste 0 -- -- 63
2018-04-21 17:00:00 20.8 4 Noroeste 16 Norte 0 -- -- 62
2018-04-21 16:00:00 19.7 13 Norte 22 Norte 0 -- -- 72
2018-04-21 15:00:00 20.4 12 Norte 21 Norte 0 -- -- 57
2018-04-21 14:00:00 19.7 11 Norte 19 Norte 0 -- -- 59
2018-04-21 13:00:00 18 19 Norte 30 Norte 0 -- -- 76
2018-04-21 12:00:00 19.4 3 Nordeste 15 Noroeste 0 -- -- 59
2018-04-21 11:00:00 19.1 3 Sur 26 Noroeste 0 -- -- 59
2018-04-21 10:00:00 17.6 19 Noroeste 42 Noroeste 0 -- -- 67
2018-04-21 09:00:00 17.4 26 Noroeste 37 Noroeste 0 -- -- 73
2018-04-21 08:00:00 17 15 Norte 32 Noroeste 0 -- -- 74
2018-04-21 07:00:00 16.8 29 Norte 36 Norte 0 -- -- 77
2018-04-21 06:00:00 16.6 6 Este 8 Este 0 -- -- 64
2018-04-21 05:00:00 16 2 Este 10 Nordeste 0 -- -- 67
2018-04-21 04:00:00 16.6 3 Este 15 Norte 0 -- -- 65
2018-04-21 03:00:00 17.2 10 Norte 18 Noroeste 0 -- -- 65
2018-04-21 02:00:00 17.2 13 Norte 19 Noroeste 0 -- -- 67
2018-04-21 01:00:00 17.1 12 Norte 28 Noroeste 0 -- -- 68
2018-04-21 00:00:00 17.3 17 Norte 37 Norte 0 -- -- 67
2018-04-20 23:00:00 17.4 19 Norte 27 Norte 0 -- -- 63
2018-04-20 22:00:00 17.5 18 Norte 24 Norte 0 -- -- 63
2018-04-20 21:00:00 17.5 16 Norte 26 Norte 0 -- -- 64
2018-04-20 20:00:00 18.4 13 Norte 35 Norte 0 -- -- 57
2018-04-20 19:00:00 18.5 17 Norte 40 Norte 0 -- -- 58
2018-04-20 18:00:00 17.7 23 Norte 37 Norte 0 -- -- 67
2018-04-20 17:00:00 18.9 18 Norte 37 Norte 0.2 -- -- 56
2018-04-20 16:00:00 18.2 27 Norte 48 Norte 0 -- -- 71
2018-04-20 15:00:00 19.1 18 Norte 34 Norte 0 -- -- 48
2018-04-20 14:00:00 19.3 18 Norte 41 Norte 0 -- -- 49
2018-04-20 13:00:00 19.3 19 Norte 36 Norte 0 -- -- 54
2018-04-20 12:00:00 19.1 19 Norte 36 Norte 0 -- -- 51
2018-04-20 11:00:00 18.5 19 Nordeste 35 Nordeste 0 -- -- 51
2018-04-20 10:00:00 18.3 22 Nordeste 33 Nordeste 0 -- -- 52
2018-04-20 09:00:00 17.3 14 Nordeste 28 Nordeste 0 -- -- 60
2018-04-20 08:00:00 16.9 13 Nordeste 28 Norte 0 -- -- 61
2018-04-20 07:00:00 16.8 13 Nordeste 28 Nordeste 0 -- -- 64
2018-04-20 06:00:00 17 14 Nordeste 31 Nordeste 0 -- -- 62
2018-04-20 05:00:00 17.2 16 Nordeste 31 Nordeste 0 -- -- 66
2018-04-20 04:00:00 17.3 14 Nordeste 33 Nordeste 0 -- -- 71
2018-04-20 03:00:00 17.2 13 Este 27 Este 0 -- -- 71
2018-04-20 02:00:00 17.3 14 Este 32 Este 0 -- -- 72
2018-04-20 01:00:00 17.5 14 Nordeste 28 Nordeste 0 -- -- 74
2018-04-20 00:00:00 17.8 15 Nordeste 40 Nordeste 0 -- -- 75
2018-04-19 23:00:00 17.9 13 Nordeste 23 Nordeste 0 -- -- 75
2018-04-19 22:00:00 17.8 14 Nordeste 37 Nordeste -- -- -- 82
2018-04-19 21:00:00 17.9 21 Norte 32 Norte 0.2 -- -- 86
2018-04-19 20:00:00 19.5 15 Norte 30 Norte 0 -- -- 75
2018-04-19 19:00:00 20.2 16 Norte 30 Nordeste 0 -- -- 72
2018-04-19 18:00:00 20.7 13 Nordeste 32 Norte 0 -- -- 66
2018-04-19 17:00:00 20.8 15 Nordeste 31 Nordeste 0 -- -- 66
2018-04-19 16:00:00 21.8 17 Norte 31 Norte 0 -- -- 62
2018-04-19 15:00:00 21.2 17 Norte 35 Norte 0 -- -- 66
2018-04-19 14:00:00 21.1 17 Norte 31 Norte 0 -- -- 67
2018-04-19 13:00:00 20.2 24 Norte 42 Norte 0 -- -- 70
2018-04-19 12:00:00 19.9 26 Norte 46 Norte 0 -- -- 74
2018-04-19 11:00:00 20.5 16 Norte 28 Norte 0 -- -- 69
2018-04-19 10:00:00 21 10 Nordeste 23 Este 0 -- -- 58
2018-04-19 09:00:00 18.9 12 Nordeste 22 Este 0 -- -- 72
2018-04-19 08:00:00 18.2 11 Nordeste 24 Nordeste 0 -- -- 78
2018-04-19 07:00:00 18.2 14 Nordeste 27 Nordeste 0 -- -- 79
2018-04-19 06:00:00 18 16 Nordeste 29 Norte 0 -- -- 81
2018-04-19 05:00:00 18.1 13 Nordeste 27 Nordeste 0 -- -- 80
2018-04-19 04:00:00 18.1 15 Nordeste 26 Nordeste 0 -- -- 80
2018-04-19 03:00:00 18.2 15 Nordeste 28 Norte 0 -- -- 80
2018-04-19 02:00:00 18.3 20 Norte 33 Norte 0 -- -- 78
2018-04-19 01:00:00 18.5 18 Norte 36 Nordeste 0 -- -- 77
2018-04-19 00:00:00 18.5 22 Norte 33 Norte 0 -- -- 79
2018-04-18 23:00:00 18.8 19 Norte 32 Norte 0 -- -- 76
2018-04-18 22:00:00 18.8 20 Nordeste 30 Nordeste 0 -- -- 74
2018-04-18 21:00:00 19.1 21 Norte 30 Nordeste 0 -- -- 73
2018-04-18 20:00:00 19.8 13 Nordeste 28 Nordeste 0 -- -- 70
2018-04-18 19:00:00 20.6 19 Norte 42 Norte 0 -- -- 69
2018-04-18 18:00:00 20.4 32 Norte 44 Norte 0 -- -- 73
2018-04-18 17:00:00 21.6 21 Nordeste 40 Norte 0 -- -- 65
2018-04-18 16:00:00 20.9 24 Norte 40 Norte 0 -- -- 70
2018-04-18 15:00:00 21 27 Norte 38 Norte 0 -- -- 68
2018-04-18 14:00:00 20.7 25 Norte 41 Norte 0 -- -- 68
2018-04-18 13:00:00 20.6 22 Norte 32 Nordeste 0 -- -- 72
2018-04-18 12:00:00 19.9 21 Norte 31 Norte 0 -- -- 75
2018-04-18 11:00:00 19.5 17 Norte 27 Norte 0 -- -- 76
2018-04-18 10:00:00 18.6 15 Nordeste 28 Norte 0 -- -- 78
2018-04-18 09:00:00 18.6 13 Nordeste 23 Norte 0 -- -- 79
2018-04-18 08:00:00 18 12 Nordeste 24 Nordeste 0 -- -- 81
2018-04-18 07:00:00 18 15 Nordeste 27 Nordeste 0 -- -- 80
2018-04-18 06:00:00 18 15 Nordeste 31 Nordeste 0 -- -- 81
2018-04-18 05:00:00 17.9 18 Nordeste 31 Nordeste 0 -- -- 82
2018-04-18 04:00:00 17.9 14 Norte 30 Norte 0 -- -- 82
2018-04-18 03:00:00 17.9 14 Nordeste 32 Nordeste 0 -- -- 82
2018-04-18 02:00:00 17.9 17 Norte 27 Norte 0 -- -- 82
2018-04-18 01:00:00 18.1 12 Norte 26 Norte 0 -- -- 81
2018-04-18 00:00:00 18.1 10 Nordeste 28 Nordeste 0 -- -- 79
2018-04-17 23:00:00 18.3 11 Nordeste 27 Nordeste 0 -- -- 78
2018-04-17 22:00:00 18.6 16 Nordeste 34 Nordeste 0 -- -- 76
2018-04-17 21:00:00 18.9 15 Nordeste 29 Nordeste 0 -- -- 75
2018-04-17 20:00:00 20.1 12 Nordeste 32 Norte 0 -- -- 72
2018-04-17 19:00:00 21 19 Nordeste 35 Nordeste 0 -- -- 68
2018-04-17 18:00:00 21.4 19 Nordeste 43 Norte 0 -- -- 68
2018-04-17 17:00:00 21.2 21 Norte 42 Norte 0 -- -- 70
2018-04-17 16:00:00 21.5 19 Norte 42 Norte 0 -- -- 69
2018-04-17 15:00:00 20 31 Norte 46 Norte 0 -- -- 74
2018-04-17 14:00:00 21.6 17 Nordeste 39 Norte 0 -- -- 66
2018-04-17 13:00:00 21.6 9 Norte 24 Oeste 0 -- -- 64
2018-04-17 12:00:00 21.7 12 Norte 32 Norte 0 -- -- 64
2018-04-17 11:00:00 20.8 13 Nordeste 30 Nordeste 0 -- -- 65
2018-04-17 10:00:00 19.5 15 Nordeste 31 Nordeste 0 -- -- 68
2018-04-17 09:00:00 18.5 10 Nordeste 33 Nordeste 0 -- -- 70
2018-04-17 08:00:00 17.3 10 Este 37 Nordeste 0 -- -- 73
2018-04-17 07:00:00 17.4 8 Este 24 Este 0 -- -- 71
2018-04-17 06:00:00 17.4 8 Sudoeste 32 Nordeste 0 -- -- 72
2018-04-17 05:00:00 17.4 17 Nordeste 36 Nordeste 0 -- -- 73
2018-04-17 04:00:00 17.5 15 Nordeste 30 Este 0 -- -- 75
2018-04-17 03:00:00 17.6 7 Sudeste 25 Norte 0 -- -- 74
2018-04-17 02:00:00 17.6 10 Nordeste 30 Nordeste 0 -- -- 76
2018-04-17 01:00:00 17.9 14 Norte 29 Norte 0 -- -- 78
2018-04-17 00:00:00 18.1 13 Norte 30 Norte 0 -- -- 77
2018-04-16 23:00:00 18.3 15 Nordeste 31 Nordeste 0 -- -- 76
2018-04-16 22:00:00 18.4 16 Este 38 Este 0 -- -- 74
2018-04-16 21:00:00 18.6 14 Este 37 Nordeste 0 -- -- 74
2018-04-16 20:00:00 19.7 19 Nordeste 39 Nordeste 0 -- -- 71
2018-04-16 19:00:00 21.1 18 Nordeste 32 Este 0 -- -- 65
2018-04-16 18:00:00 22.1 19 Nordeste 35 Nordeste 0 -- -- 61
2018-04-16 17:00:00 22.8 15 Nordeste 44 Nordeste 0 -- -- 59
2018-04-16 16:00:00 21.2 27 Nordeste 48 Nordeste 0 -- -- 63
2018-04-16 15:00:00 21.4 28 Nordeste 46 Nordeste 0 -- -- 60
2018-04-16 14:00:00 22.2 22 Nordeste 40 Este 0 -- -- 59
2018-04-16 13:00:00 21.6 9 Sur 50 Nordeste 0 -- -- 61
2018-04-16 12:00:00 20.8 27 Nordeste 54 Nordeste 0 -- -- 62
2018-04-16 11:00:00 19.9 30 Nordeste 55 Nordeste 0 -- -- 65
2018-04-16 10:00:00 19 27 Nordeste 55 Nordeste 0 -- -- 67
2018-04-16 09:00:00 18.4 25 Nordeste 52 Nordeste 0 -- -- 69
2018-04-16 08:00:00 18.7 8 Sur 34 Nordeste 0 -- -- 62
2018-04-16 07:00:00 17.4 4 Sur 14 Noroeste 0 -- -- 68
2018-04-16 06:00:00 17.8 5 Sudeste 36 Este 0 -- -- 65
2018-04-16 05:00:00 19 24 Nordeste 46 Nordeste 0 -- -- 60
2018-04-16 04:00:00 17.9 27 Norte 48 Norte 0 -- -- 72
2018-04-16 03:00:00 17.9 22 Norte 41 Nordeste 0 -- -- 72
2018-04-16 02:00:00 17.9 22 Norte 41 Nordeste 0 -- -- 73
2018-04-16 01:00:00 18.1 22 Nordeste 46 Nordeste 0 -- -- 71
2018-04-16 00:00:00 18.1 23 Nordeste 39 Nordeste 0 -- -- 72
2018-04-15 23:00:00 17.9 23 Nordeste 41 Nordeste 0 -- -- 71
2018-04-15 22:00:00 18 25 Nordeste 46 Nordeste 0 -- -- 70
2018-04-15 21:00:00 18.1 24 Nordeste 44 Nordeste 0 -- -- 71
2018-04-15 20:00:00 18.8 27 Nordeste 46 Norte 0 -- -- 68
2018-04-15 19:00:00 20.1 20 Nordeste 42 Norte 0 -- -- 63
2018-04-15 18:00:00 20.3 21 Nordeste 50 Norte 0 -- -- 62
2018-04-15 17:00:00 20.9 24 Nordeste 48 Norte 0 -- -- 61
2018-04-15 16:00:00 20.9 28 Nordeste 51 Norte 0 -- -- 58
2018-04-15 15:00:00 21 26 Nordeste 47 Nordeste 0 -- -- 58
2018-04-15 14:00:00 20.8 26 Nordeste 52 Norte 0 -- -- 60
2018-04-15 13:00:00 20.8 26 Nordeste 49 Norte 0 -- -- 58
2018-04-15 12:00:00 19.9 29 Norte 68 Nordeste 0 -- -- 63
2018-04-15 11:00:00 18.9 28 Nordeste 45 Norte 0 -- -- 64
2018-04-15 10:00:00 18.6 26 Nordeste 44 Nordeste 0 -- -- 67
2018-04-15 09:00:00 18.2 23 Nordeste 38 Nordeste 0 -- -- 67
2018-04-15 08:00:00 17.2 19 Nordeste 37 Nordeste 0 -- -- 72
2018-04-15 07:00:00 17.5 17 Nordeste 31 Nordeste 0 -- -- 66
2018-04-15 06:00:00 17.1 18 Nordeste 31 Nordeste 0 -- -- 69
2018-04-15 05:00:00 16.9 16 Nordeste 32 Nordeste 0 -- -- 71
2018-04-15 04:00:00 16.7 17 Nordeste 28 Nordeste 0 -- -- 73
2018-04-15 03:00:00 16.9 16 Nordeste 28 Nordeste 0 -- -- 69
2018-04-15 02:00:00 16.9 15 Nordeste 27 Nordeste 0 -- -- 69
2018-04-15 01:00:00 17.1 16 Nordeste 29 Nordeste 0 -- -- 71
2018-04-15 00:00:00 17.2 15 Nordeste 30 Norte 0 -- -- 68
2018-04-14 23:00:00 17.4 17 Nordeste 31 Nordeste 0 -- -- 68
2018-04-14 22:00:00 17.7 14 Nordeste 31 Nordeste 0 -- -- 65
2018-04-14 21:00:00 17.6 17 Nordeste 33 Nordeste 0 -- -- 65
2018-04-14 20:00:00 18.5 18 Nordeste 39 Nordeste 0 -- -- 63
2018-04-14 19:00:00 19.2 20 Nordeste 39 Nordeste 0 -- -- 62
2018-04-14 18:00:00 19.5 19 Nordeste 37 Nordeste 0 -- -- 59
2018-04-14 17:00:00 20.2 18 Nordeste 36 Nordeste 0 -- -- 56
2018-04-14 16:00:00 20 19 Nordeste 36 Nordeste 0 -- -- 60
2018-04-14 15:00:00 20.6 17 Nordeste 35 Norte 0 -- -- 56
2018-04-14 14:00:00 19.6 17 Nordeste 32 Nordeste 0 -- -- 61
2018-04-14 13:00:00 18.7 21 Norte 31 Norte 0 -- -- 63
2018-04-14 12:00:00 19 15 Este 30 Este 0 -- -- 60
2018-04-14 11:00:00 18.1 19 Nordeste 34 Nordeste 0 -- -- 61
2018-04-14 10:00:00 18 17 Nordeste 31 Este 0 -- -- 64
2018-04-14 09:00:00 17.4 14 Nordeste 29 Nordeste 0 -- -- 67
2018-04-14 08:00:00 16.8 14 Nordeste 25 Nordeste 0 -- -- 66
2018-04-14 07:00:00 16.9 14 Nordeste 26 Nordeste 0 -- -- 68
2018-04-14 06:00:00 16.8 17 Nordeste 27 Nordeste 0 -- -- 68
2018-04-14 05:00:00 16.8 11 Nordeste 27 Nordeste 0 -- -- 69
2018-04-14 04:00:00 16.9 10 Nordeste 32 Nordeste 0 -- -- 70
2018-04-14 03:00:00 17 12 Nordeste 25 Nordeste 0 -- -- 70
2018-04-14 02:00:00 17.2 14 Nordeste 24 Nordeste 0 -- -- 72
2018-04-14 01:00:00 17.3 9 Nordeste 21 Nordeste 0 -- -- 69
2018-04-14 00:00:00 17.4 11 Nordeste 23 Nordeste 0 -- -- 74
2018-04-13 23:00:00 17.2 14 Nordeste 24 Nordeste 0 -- -- 71
2018-04-13 22:00:00 17.1 18 Norte 31 Norte 0 -- -- 75
2018-04-13 21:00:00 18.1 15 Norte 29 Norte 0 -- -- 69
2018-04-13 20:00:00 18.4 18 Norte 31 Norte 0 -- -- 65
2018-04-13 19:00:00 18.6 19 Norte 30 Norte 0 -- -- 66
2018-04-13 18:00:00 19.1 24 Norte 31 Norte 0 -- -- 64
2018-04-13 17:00:00 19.7 15 Norte 34 Norte 0 -- -- 57
2018-04-13 16:00:00 19.3 24 Norte 36 Norte 0 -- -- 63
2018-04-13 15:00:00 19.6 21 Norte 30 Norte 0 -- -- 60
2018-04-13 14:00:00 18.8 23 Norte 29 Norte 0 -- -- 65
2018-04-13 13:00:00 19.1 19 Norte 32 Norte 0 -- -- 59
2018-04-13 12:00:00 19.8 13 Nordeste 29 Norte 0 -- -- 56
2018-04-13 11:00:00 18.7 20 Norte 29 Norte 0 -- -- 65
2018-04-13 10:00:00 18.2 12 Nordeste 21 Nordeste 0 -- -- 68
2018-04-13 09:00:00 17.7 10 Nordeste 18 Nordeste 0 -- -- 68
2018-04-13 08:00:00 17.1 8 Este 16 Este 0 -- -- 74
2018-04-13 07:00:00 17.2 9 Nordeste 20 Nordeste 0 -- -- 69
2018-04-13 06:00:00 17 11 Este 23 Este 0 -- -- 65
2018-04-13 05:00:00 16.9 10 Este 21 Nordeste 0 -- -- 69
2018-04-13 04:00:00 17.3 14 Nordeste 23 Nordeste 0 -- -- 71
2018-04-13 03:00:00 17.5 9 Nordeste 20 Nordeste 0 -- -- 73
2018-04-13 02:00:00 17.6 14 Norte 30 Norte 0 -- -- 81
2018-04-13 01:00:00 17.4 14 Norte 32 Norte 0.2 -- -- 89
2018-04-13 00:00:00 19.9 6 Norte 23 Sudeste 0 -- -- 67
2018-04-12 23:00:00 19.6 13 Sudeste 23 Este 0 -- -- 65
2018-04-12 22:00:00 19.2 10 Este 18 Este 0 -- -- 70
2018-04-12 21:00:00 19.1 8 Nordeste 24 Norte 0 -- -- 75
2018-04-12 20:00:00 19.3 22 Norte 28 Norte 0 -- -- 77
2018-04-12 19:00:00 20 19 Norte 29 Norte 0 -- -- 75
2018-04-12 18:00:00 20.3 21 Norte 26 Noroeste 0 -- -- 75
2018-04-12 17:00:00 20.5 22 Norte 30 Norte 0 -- -- 69
2018-04-12 16:00:00 21.1 18 Norte 36 Norte 0 -- -- 62
2018-04-12 15:00:00 20.6 22 Norte 31 Norte 0 -- -- 58
2018-04-12 14:00:00 20.5 14 Norte 28 Norte 0 -- -- 61
2018-04-12 13:00:00 19.8 18 Norte 24 Norte 0 -- -- 69
2018-04-12 12:00:00 19.7 8 Norte 18 Norte 0 -- -- 70
2018-04-12 11:00:00 18.4 18 Norte 32 Norte 0 -- -- 79
2018-04-12 10:00:00 18.3 6 Nordeste 13 Norte 0 -- -- 80
2018-04-12 09:00:00 17.8 6 Nordeste 14 Sudeste 0 -- -- 82
2018-04-12 08:00:00 17.5 5 Este 12 Sudeste 0 -- -- 85
2018-04-12 07:00:00 17.4 6 Este 10 Nordeste 0 -- -- 84
2018-04-12 06:00:00 17.2 4 Este 13 Sudeste 0 -- -- 84
2018-04-12 05:00:00 17.2 8 Este 16 Sudeste 0 -- -- 85
2018-04-12 04:00:00 17.3 8 Este 15 Este 0.2 -- -- 85
2018-04-12 03:00:00 17.2 8 Este 21 Este 1.2 -- -- 84
2018-04-12 02:00:00 17.7 7 Nordeste 27 Este 0.2 -- -- 79
2018-04-12 01:00:00 18 9 Este 21 Nordeste 0 -- -- 80
2018-04-12 00:00:00 18.1 10 Nordeste 21 Nordeste 0 -- -- 79
2018-04-11 23:00:00 17.6 11 Este 29 Este 0 -- -- 77
2018-04-11 22:00:00 17.1 16 Nordeste 29 Nordeste 0 -- -- 84
2018-04-11 21:00:00 18 9 Nordeste 23 Nordeste 0 -- -- 81
2018-04-11 20:00:00 18.2 6 Este 17 Este 0.2 -- -- 84
2018-04-11 19:00:00 17.4 8 Este 23 Norte 0 -- -- 89
2018-04-11 18:00:00 19 15 Norte 27 Norte 0 -- -- 78
2018-04-11 17:00:00 19.4 17 Norte 28 Norte 0 -- -- 78
2018-04-11 16:00:00 19.7 20 Norte 25 Norte 0 -- -- 77
2018-04-11 15:00:00 20 12 Norte 20 Norte 0 -- -- 74
2018-04-11 14:00:00 19.6 17 Norte 28 Norte 0 -- -- 79
2018-04-11 13:00:00 19.1 17 Norte 23 Norte 0 -- -- 77
2018-04-11 12:00:00 18.4 17 Norte 25 Norte 0 -- -- 79
2018-04-11 11:00:00 19.2 9 Norte 14 Norte 0 -- -- 74
2018-04-11 10:00:00 18 8 Este 20 Sudeste 0 -- -- 82
2018-04-11 09:00:00 17.2 22 Norte 37 Norte 0 -- -- 84
2018-04-11 08:00:00 18.3 11 Norte 19 Norte 0 -- -- 76
2018-04-11 07:00:00 18.1 10 Nordeste 17 Nordeste 0 -- -- 73
2018-04-11 06:00:00 17.9 6 Nordeste 15 Norte 0 -- -- 74
2018-04-11 05:00:00 17.8 5 Nordeste 16 Nordeste 0 -- -- 74
2018-04-11 04:00:00 17.6 8 Este 19 Este 0 -- -- 71
2018-04-11 03:00:00 17.7 10 Nordeste 18 Nordeste 0 -- -- 68
2018-04-11 02:00:00 17.8 9 Nordeste 23 Norte 0 -- -- 64
2018-04-11 01:00:00 17.9 12 Norte 22 Nordeste 0 -- -- 67
2018-04-11 00:00:00 17.9 8 Nordeste 19 Este 0 -- -- 69
2018-04-10 23:00:00 17.8 8 Nordeste 21 Nordeste 0 -- -- 67
2018-04-10 22:00:00 18 10 Nordeste 21 Nordeste 0 -- -- 66
2018-04-10 21:00:00 17.9 10 Nordeste 22 Nordeste 0 -- -- 67
2018-04-10 20:00:00 18.2 15 Nordeste 29 Nordeste 0 -- -- 63
2018-04-10 19:00:00 19.1 18 Nordeste 36 Nordeste 0 -- -- 61
2018-04-10 18:00:00 19.2 17 Norte 33 Nordeste 0 -- -- 64
2018-04-10 17:00:00 20.1 14 Nordeste 32 Nordeste 0 -- -- 58
2018-04-10 16:00:00 19.9 13 Nordeste 31 Este 0 -- -- 58
2018-04-10 15:00:00 19.3 14 Nordeste 36 Norte 0 -- -- 57
2018-04-10 14:00:00 19.6 19 Nordeste 37 Norte 0 -- -- 55
2018-04-10 13:00:00 18.8 23 Nordeste 37 Norte 0 -- -- 57
2018-04-10 12:00:00 18.4 19 Nordeste 36 Norte 0 -- -- 55
2018-04-10 11:00:00 17.8 18 Nordeste 36 Nordeste 0 -- -- 57
2018-04-10 10:00:00 17.8 20 Nordeste 33 Nordeste 0 -- -- 55
2018-04-10 09:00:00 16.8 20 Nordeste 31 Nordeste 0 -- -- 58
2018-04-10 08:00:00 16.2 18 Nordeste 34 Nordeste 0 -- -- 60
2018-04-10 07:00:00 16.2 19 Nordeste 32 Nordeste 0 -- -- 60
2018-04-10 06:00:00 16.2 18 Nordeste 36 Nordeste 0 -- -- 63
2018-04-10 05:00:00 16.2 21 Nordeste 33 Nordeste 0 -- -- 67
2018-04-10 04:00:00 16.1 16 Nordeste 28 Nordeste 0 -- -- 67
2018-04-10 03:00:00 15.4 13 Este 45 Norte 0.4 -- -- 76
2018-04-10 02:00:00 16.8 20 Nordeste 34 Nordeste 0 -- -- 66
2018-04-10 01:00:00 16.9 19 Nordeste 34 Nordeste 0 -- -- 62
2018-04-10 00:00:00 16.9 21 Nordeste 33 Nordeste 0 -- -- 62
2018-04-09 23:00:00 17 22 Nordeste 39 Nordeste 0 -- -- 63
2018-04-09 22:00:00 16.8 23 Nordeste 41 Nordeste 0 -- -- 65
2018-04-09 21:00:00 17 22 Nordeste 41 Nordeste 0 -- -- 64
2018-04-09 20:00:00 16.9 25 Nordeste 48 Norte 0 -- -- 73
2018-04-09 19:00:00 18.2 22 Nordeste 40 Nordeste 0 -- -- 60
2018-04-09 18:00:00 18.4 26 Nordeste 53 Nordeste 0 -- -- 57
2018-04-09 17:00:00 17.8 26 Norte 48 Norte 0 -- -- 63
2018-04-09 16:00:00 18.5 26 Nordeste 46 Norte 0 -- -- 57
2018-04-09 15:00:00 18.6 24 Nordeste 44 Nordeste 0 -- -- 57
2018-04-09 14:00:00 19.1 26 Nordeste 42 Norte 0 -- -- 55
2018-04-09 13:00:00 18.5 24 Nordeste 48 Nordeste 0 -- -- 53
2018-04-09 12:00:00 17.9 28 Nordeste 48 Norte 0 -- -- 55
2018-04-09 11:00:00 17.7 24 Nordeste 37 Nordeste 0 -- -- 58
2018-04-09 10:00:00 16.6 15 Nordeste 37 Este 0 -- -- 66
2018-04-09 09:00:00 15.8 17 Nordeste 41 Nordeste 0.2 -- -- 72
2018-04-09 08:00:00 16.7 16 Nordeste 38 Norte 0 -- -- 61
2018-04-09 07:00:00 16.8 23 Nordeste 49 Norte 0 -- -- 68
2018-04-09 06:00:00 17.2 24 Norte 44 Norte 0 -- -- 76
2018-04-09 05:00:00 17 16 Nordeste 41 Nordeste 0 -- -- 82
2018-04-09 04:00:00 17.3 21 Nordeste 40 Nordeste 0.8 -- -- 79
2018-04-09 03:00:00 17.6 20 Nordeste 42 Nordeste 0 -- -- 74
2018-04-09 02:00:00 17.8 19 Nordeste 40 Nordeste 0 -- -- 73
2018-04-09 01:00:00 17.9 25 Nordeste 49 Nordeste 0 -- -- 70
2018-04-09 00:00:00 17.7 23 Nordeste 47 Nordeste 0 -- -- 74
2018-04-08 23:00:00 17.6 24 Nordeste 49 Norte 0.2 -- -- 77
2018-04-08 22:00:00 17.9 22 Nordeste 39 Nordeste 0 -- -- 77
2018-04-08 21:00:00 17.4 17 Nordeste 43 Nordeste 0.6 -- -- 81
2018-04-08 20:00:00 18 23 Nordeste 41 Nordeste 0 -- -- 78
2018-04-08 19:00:00 18.9 24 Nordeste 47 Este 0 -- -- 69
2018-04-08 18:00:00 19.3 21 Nordeste 50 Nordeste 0 -- -- 67
2018-04-08 17:00:00 18.8 19 Nordeste 46 Nordeste 0 -- -- 73
2018-04-08 16:00:00 19.4 26 Nordeste 46 Norte 0 -- -- 63
2018-04-08 15:00:00 19.7 22 Nordeste 42 Norte 0 -- -- 61
2018-04-08 14:00:00 18.9 26 Nordeste 47 Norte 0 -- -- 69
2018-04-08 13:00:00 18.9 23 Nordeste 44 Nordeste 0 -- -- 66
2018-04-08 12:00:00 18.4 24 Nordeste 42 Nordeste 0 -- -- 64
2018-04-08 11:00:00 19 22 Nordeste 38 Norte 0 -- -- 59
2018-04-08 10:00:00 17.9 22 Nordeste 41 Nordeste 0 -- -- 68
2018-04-08 09:00:00 17.6 16 Nordeste 27 Nordeste 0 -- -- 65
2018-04-08 08:00:00 16.9 16 Nordeste 30 Este 0 -- -- 64
2018-04-08 07:00:00 17 22 Nordeste 37 Nordeste 0 -- -- 64
2018-04-08 06:00:00 17.2 19 Nordeste 30 Nordeste 0 -- -- 62
2018-04-08 05:00:00 17.2 17 Nordeste 34 Norte 0 -- -- 60
2018-04-08 04:00:00 17.4 22 Nordeste 33 Nordeste 0 -- -- 61
2018-04-08 03:00:00 17.2 15 Nordeste 36 Nordeste 0 -- -- 65
2018-04-08 02:00:00 17.5 16 Nordeste 29 Norte 0 -- -- 65
2018-04-08 01:00:00 17.7 17 Nordeste 32 Nordeste 0 -- -- 60
2018-04-08 00:00:00 17.9 18 Nordeste 30 Nordeste 0 -- -- 59
2018-04-07 23:00:00 17.8 13 Nordeste 30 Nordeste 0 -- -- 58
2018-04-07 22:00:00 18.1 18 Nordeste 30 Nordeste 0 -- -- 58
2018-04-07 21:00:00 18.1 15 Nordeste 30 Nordeste 0 -- -- 54
2018-04-07 20:00:00 18.4 16 Nordeste 32 Nordeste 0 -- -- 54
2018-04-07 19:00:00 19.6 15 Nordeste 33 Norte 0 -- -- 57
2018-04-07 18:00:00 19.2 21 Norte 33 Norte 0 -- -- 58
2018-04-07 17:00:00 19.9 21 Norte 46 Norte 0 -- -- 46
2018-04-07 16:00:00 19.7 24 Norte 39 Norte 0 -- -- 57
2018-04-07 15:00:00 19.9 19 Norte 36 Norte 0 -- -- 52
2018-04-07 14:00:00 19.4 20 Norte 39 Nordeste 0 -- -- 55
2018-04-07 13:00:00 19.7 20 Norte 40 Norte 0 -- -- 58
2018-04-07 12:00:00 19.7 14 Nordeste 30 Nordeste 0 -- -- 56
2018-04-07 11:00:00 18.5 16 Norte 27 Norte 0 -- -- 61
2018-04-07 10:00:00 18.2 13 Nordeste 31 Nordeste 0 -- -- 61
2018-04-07 09:00:00 17.8 12 Nordeste 24 Nordeste 0 -- -- 62
2018-04-07 08:00:00 17.7 12 Nordeste 22 Nordeste 0 -- -- 65
2018-04-07 07:00:00 17.6 11 Nordeste 19 Nordeste 0 -- -- 67
2018-04-07 06:00:00 17.6 8 Nordeste 22 Nordeste 0 -- -- 72
2018-04-07 05:00:00 17.5 9 Nordeste 19 Nordeste 0 -- -- 68
2018-04-07 04:00:00 17.6 9 Nordeste 18 Nordeste 0 -- -- 72
2018-04-07 03:00:00 17.7 7 Este 15 Nordeste 0 -- -- 74
2018-04-07 02:00:00 17.3 8 Este 36 Norte 0.2 -- -- 78
2018-04-07 01:00:00 18.4 10 Norte 27 Norte 0 -- -- 74
2018-04-07 00:00:00 18.5 10 Norte 16 Norte 0 -- -- 73
2018-04-06 23:00:00 18.4 6 Norte 20 Norte 0 -- -- 77
2018-04-06 22:00:00 18.2 23 Norte 31 Norte 0 -- -- 76
2018-04-06 21:00:00 19.1 2 Nordeste 7 Noroeste 0 -- -- 71
2018-04-06 20:00:00 19.3 4 Sur 12 Sudoeste 0 -- -- 68
2018-04-06 19:00:00 20.1 11 Sudoeste 14 Sudoeste 0 -- -- 65
2018-04-06 18:00:00 21.2 5 Sudoeste 9 Oeste 0 -- -- 58
2018-04-06 17:00:00 21.2 5 Oeste 22 Noroeste 0 -- -- 60
2018-04-06 16:00:00 19.8 19 Noroeste 22 Norte 0 -- -- 66
2018-04-06 15:00:00 20.3 20 Norte 24 Norte 0 -- -- 64
2018-04-06 14:00:00 19.6 13 Noroeste 18 Noroeste 0 -- -- 65
2018-04-06 13:00:00 19.5 14 Norte 21 Norte 0 -- -- 63
2018-04-06 12:00:00 19.6 14 Norte 23 Norte 0 -- -- 62
2018-04-06 11:00:00 19 17 Norte 20 Norte 0 -- -- 64
2018-04-06 10:00:00 19.3 6 Norte 16 Este 0 -- -- 59
2018-04-06 09:00:00 17.3 11 Este 18 Este 0 -- -- 57
2018-04-06 08:00:00 16.6 12 Este 27 Este 0 -- -- 59
2018-04-06 07:00:00 16.6 11 Este 19 Este 0 -- -- 59
2018-04-06 06:00:00 16.2 12 Este 20 Este 0 -- -- 62
2018-04-06 05:00:00 16 8 Este 21 Este 0 -- -- 61
2018-04-06 04:00:00 16.3 9 Este 21 Este 0 -- -- 61
2018-04-06 03:00:00 16.9 10 Este 25 Este 0 -- -- 60
2018-04-06 02:00:00 17.4 10 Nordeste 23 Este 0 -- -- 61
2018-04-06 01:00:00 17.6 10 Nordeste 22 Norte 0 -- -- 62
2018-04-06 00:00:00 17.6 11 Nordeste 23 Nordeste 0 -- -- 63
2018-04-05 23:00:00 17.5 15 Nordeste 25 Nordeste 0 -- -- 63
2018-04-05 22:00:00 17.6 14 Nordeste 33 Nordeste 0 -- -- 63
2018-04-05 21:00:00 17.6 17 Nordeste 33 Nordeste 0 -- -- 63
2018-04-05 20:00:00 18.5 19 Nordeste 35 Nordeste 0 -- -- 60
2018-04-05 19:00:00 19.6 19 Nordeste 39 Norte 0 -- -- 57
2018-04-05 18:00:00 19.3 26 Norte 38 Norte 0 -- -- 58
2018-04-05 17:00:00 19.8 23 Norte 45 Norte 0 -- -- 58
2018-04-05 16:00:00 19.7 27 Norte 40 Norte 0 -- -- 56
2018-04-05 15:00:00 20 25 Norte 41 Norte 0 -- -- 60
2018-04-05 14:00:00 20.2 24 Norte 36 Norte 0 -- -- 60
2018-04-05 13:00:00 20.2 17 Nordeste 31 Nordeste 0 -- -- 55
2018-04-05 12:00:00 20.1 14 Nordeste 33 Nordeste 0 -- -- 54
2018-04-05 11:00:00 19.4 16 Nordeste 33 Este 0 -- -- 57
2018-04-05 10:00:00 18.1 14 Nordeste 30 Norte 0 -- -- 59
2018-04-05 09:00:00 17.7 12 Nordeste 24 Nordeste 0 -- -- 62
2018-04-05 08:00:00 17.4 14 Nordeste 29 Nordeste 0 -- -- 61
2018-04-05 07:00:00 17.4 15 Nordeste 28 Nordeste 0 -- -- 62
2018-04-05 06:00:00 17.6 17 Nordeste 32 Nordeste 0 -- -- 61
2018-04-05 05:00:00 17.6 15 Nordeste 27 Nordeste 0 -- -- 65
2018-04-05 04:00:00 17.5 14 Nordeste 30 Nordeste 0 -- -- 67
2018-04-05 03:00:00 17.7 10 Este 24 Nordeste 0 -- -- 61
2018-04-05 02:00:00 17.6 11 Nordeste 31 Nordeste 0 -- -- 60
2018-04-05 01:00:00 17.5 10 Este 33 Nordeste 0 -- -- 60
2018-04-05 00:00:00 17.5 19 Nordeste 38 Nordeste 0 -- -- 61
2018-04-04 23:00:00 17.9 17 Nordeste 35 Nordeste 0 -- -- 61
2018-04-04 22:00:00 18 21 Nordeste 40 Nordeste 0 -- -- 62
2018-04-04 21:00:00 18 19 Nordeste 40 Nordeste 0 -- -- 59
2018-04-04 20:00:00 18.3 22 Nordeste 44 Nordeste 0 -- -- 58
2018-04-04 19:00:00 19.6 23 Nordeste 37 Nordeste 0 -- -- 56
2018-04-04 18:00:00 19.9 19 Nordeste 41 Nordeste 0 -- -- 53
2018-04-04 17:00:00 20.3 21 Nordeste 42 Nordeste 0 -- -- 55
2018-04-04 16:00:00 20.3 25 Nordeste 42 Nordeste 0 -- -- 57
2018-04-04 15:00:00 20.3 23 Nordeste 43 Nordeste 0 -- -- 58
2018-04-04 14:00:00 20 23 Nordeste 51 Nordeste 0 -- -- 63
2018-04-04 13:00:00 20.2 25 Nordeste 42 Nordeste 0 -- -- 64
2018-04-04 12:00:00 20.2 17 Nordeste 35 Este 0 -- -- 57
2018-04-04 11:00:00 19.5 17 Nordeste 34 Nordeste 0 -- -- 62
2018-04-04 10:00:00 19.5 22 Nordeste 38 Nordeste 0 -- -- 60
2018-04-04 09:00:00 18.8 12 Nordeste 29 Nordeste 0 -- -- 59
2018-04-04 08:00:00 18.1 15 Este 33 Este 0 -- -- 62
2018-04-04 07:00:00 18.1 13 Este 30 Nordeste 0 -- -- 62
2018-04-04 06:00:00 17.5 16 Nordeste 31 Nordeste 0 -- -- 72
2018-04-04 05:00:00 17.7 16 Nordeste 31 Nordeste 0 -- -- 75
2018-04-04 04:00:00 17.7 13 Nordeste 31 Nordeste 0 -- -- 75
2018-04-04 03:00:00 18 18 Nordeste 31 Norte 0 -- -- 74
2018-04-04 02:00:00 18.1 19 Nordeste 35 Nordeste 0 -- -- 74
2018-04-04 01:00:00 18.4 17 Nordeste 29 Nordeste 0 -- -- 74
2018-04-04 00:00:00 18.4 14 Nordeste 26 Nordeste 0 -- -- 74
2018-04-03 23:00:00 18.5 13 Nordeste 24 Norte 0 -- -- 73
2018-04-03 22:00:00 18.5 12 Nordeste 24 Nordeste 0 -- -- 72
2018-04-03 21:00:00 18.7 16 Nordeste 29 Nordeste 0 -- -- 72
2018-04-03 20:00:00 19.5 15 Norte 28 Norte 0 -- -- 69
2018-04-03 19:00:00 20.2 18 Norte 30 Norte 0 -- -- 62
2018-04-03 18:00:00 20.6 19 Norte 33 Norte 0 -- -- 59
2018-04-03 17:00:00 20.3 23 Norte 36 Norte 0 -- -- 63
2018-04-03 16:00:00 20.3 25 Norte 39 Norte 0 -- -- 64
2018-04-03 15:00:00 19.9 28 Norte 35 Norte 0 -- -- 68
2018-04-03 14:00:00 20 28 Norte 37 Norte 0 -- -- 68
2018-04-03 13:00:00 20.4 24 Norte 33 Norte 0 -- -- 66
2018-04-03 12:00:00 20.5 18 Norte 27 Norte 0 -- -- 62
2018-04-03 11:00:00 19.5 18 Norte 24 Norte 0 -- -- 67
2018-04-03 10:00:00 19 11 Norte 21 Nordeste 0 -- -- 71
2018-04-03 09:00:00 17.4 5 Nordeste 14 Nordeste 0 -- -- 72
2018-04-03 08:00:00 16.6 7 Este 14 Este 0 -- -- 71
2018-04-03 07:00:00 16.4 9 Este 14 Sudeste 0 -- -- 73
2018-04-03 06:00:00 16.6 6 Este 15 Este 0 -- -- 73
2018-04-03 05:00:00 16.7 5 Este 16 Nordeste 0 -- -- 76
2018-04-03 04:00:00 17.4 6 Este 12 Nordeste 0 -- -- 76
2018-04-03 03:00:00 16.9 6 Este 12 Nordeste 0 -- -- 73
2018-04-03 02:00:00 18 9 Nordeste 15 Nordeste 0 -- -- 76
2018-04-03 01:00:00 18 6 Nordeste 16 Este 0 -- -- 72
2018-04-03 00:00:00 18.3 9 Este 15 Nordeste 0 -- -- 75
2018-04-02 23:00:00 18.6 11 Nordeste 19 Nordeste 0 -- -- 75
2018-04-02 22:00:00 18.8 10 Nordeste 18 Norte 0 -- -- 73
2018-04-02 21:00:00 18.9 10 Nordeste 22 Nordeste 0 -- -- 71
2018-04-02 20:00:00 19.9 10 Nordeste 23 Nordeste 0 -- -- 67
2018-04-02 19:00:00 20.7 13 Norte 23 Norte 0 -- -- 62
2018-04-02 18:00:00 20.4 17 Norte 27 Norte 0 -- -- 68
2018-04-02 17:00:00 20.4 20 Norte 35 Norte 0 -- -- 69
2018-04-02 16:00:00 20.7 21 Norte 33 Norte 0 -- -- 70
2018-04-02 15:00:00 20.6 21 Norte 30 Norte 0 -- -- 71
2018-04-02 14:00:00 20.6 16 Norte 21 Norte 0 -- -- 65
2018-04-02 13:00:00 20.4 7 Norte 13 Norte 0 -- -- 67
2018-04-02 12:00:00 20.5 12 Norte 23 Norte 0 -- -- 62
2018-04-02 11:00:00 20.9 9 Norte 20 Norte 0 -- -- 57
2018-04-02 10:00:00 19.2 7 Este 18 Norte 0 -- -- 64
2018-04-02 09:00:00 18.6 4 Este 9 Este 0 -- -- 65
2018-04-02 08:00:00 18 5 Sudeste 9 Sudeste 0 -- -- 68
2018-04-02 07:00:00 17.3 4 Nordeste 9 Este 0 -- -- 68
2018-04-02 06:00:00 17.8 3 Oeste 9 Sur 0 -- -- 70
2018-04-02 05:00:00 17.6 5 Sur 12 Sudoeste 0 -- -- 72
2018-04-02 04:00:00 17 3 Sudeste 10 Sudeste 0 -- -- 68
2018-04-02 03:00:00 16.9 9 Este 15 Este 0 -- -- 68
2018-04-02 02:00:00 16.9 9 Este 15 Sudeste 0 -- -- 70
2018-04-02 01:00:00 17.4 6 Este 14 Este 0 -- -- 75
2018-04-02 00:00:00 17.7 6 Este 12 Este 0 -- -- 75
2018-04-01 23:00:00 18.3 4 Noroeste 9 Oeste 0 -- -- 75
2018-04-01 22:00:00 18.4 3 Sudoeste 11 Sudoeste 0 -- -- 74
2018-04-01 21:00:00 18.7 8 Sudoeste 12 Oeste 0 -- -- 73
2018-04-01 20:00:00 19.4 7 Sudoeste 13 Sudoeste 0 -- -- 69
2018-04-01 19:00:00 20.3 8 Oeste 11 Sudoeste 0 -- -- 65
2018-04-01 18:00:00 21.3 7 Sudoeste 12 Oeste 0 -- -- 63
2018-04-01 17:00:00 20.5 7 Oeste 15 Oeste 0 -- -- 63
2018-04-01 16:00:00 19.8 8 Oeste 15 Sudoeste 0 -- -- 66
2018-04-01 15:00:00 19.3 12 Oeste 17 Oeste 0 -- -- 67
2018-04-01 14:00:00 19.9 10 Sudoeste 14 Sudoeste 0 -- -- 63
2018-04-01 13:00:00 19.6 6 Oeste 10 Noroeste 0 -- -- 65
2018-04-01 12:00:00 19.5 4 Oeste 8 Oeste 0 -- -- 65
2018-04-01 11:00:00 18.4 4 Oeste 7 Oeste 0 -- -- 68
2018-04-01 10:00:00 19.4 0 Calma 12 Este 0 -- -- 60
2018-04-01 09:00:00 16.4 9 Este 17 Este 0 -- -- 64
2018-04-01 08:00:00 15.9 10 Este 15 Este 0 -- -- 68
2018-04-01 07:00:00 15.8 8 Este 13 Este 0 -- -- 69
2018-04-01 06:00:00 15.8 9 Este 14 Este 0 -- -- 69
2018-04-01 05:00:00 15.5 9 Este 14 Este 0 -- -- 71
2018-04-01 04:00:00 16.1 9 Este 16 Sudeste 0 -- -- 68
2018-04-01 03:00:00 16.1 6 Sudeste 15 Este 0 -- -- 73
2018-04-01 02:00:00 16.3 6 Este 16 Sudeste 0 -- -- 73
2018-04-01 01:00:00 16.7 9 Nordeste 19 Nordeste 0 -- -- 72
2018-04-01 00:00:00 17 10 Nordeste 19 Nordeste 0 -- -- 74
2018-03-31 23:00:00 17.3 9 Nordeste 22 Este 0 -- -- 75
2018-03-31 22:00:00 17.6 11 Nordeste 26 Nordeste 0 -- -- 74
2018-03-31 21:00:00 17.7 15 Nordeste 27 Nordeste 0 -- -- 73
2018-03-31 20:00:00 18.9 13 Nordeste 24 Nordeste 0 -- -- 67
2018-03-31 19:00:00 21.8 5 Sudeste 13 Sur 0 -- -- 62
2018-03-31 18:00:00 22.2 6 Sur 13 Sur 0 -- -- 60
2018-03-31 17:00:00 22 9 Sur 15 Sudoeste 0 -- -- 59
2018-03-31 16:00:00 20.9 14 Sudoeste 26 Este 0 -- -- 66
2018-03-31 15:00:00 21.4 22 Nordeste 44 Nordeste 0 -- -- 54
2018-03-31 14:00:00 20.7 23 Nordeste 46 Nordeste 0 -- -- 55
2018-03-31 13:00:00 19.5 10 Sudeste 45 Nordeste 0 -- -- 66
2018-03-31 12:00:00 19.7 10 Este 43 Este 0 -- -- 58
2018-03-31 11:00:00 18.7 14 Este 31 Nordeste 0 -- -- 63
2018-03-31 10:00:00 18.2 15 Este 48 Nordeste 0 -- -- 61
2018-03-31 09:00:00 17.1 27 Nordeste 48 Nordeste 0 -- -- 61
2018-03-31 08:00:00 16.7 28 Nordeste 54 Norte 0 -- -- 62
2018-03-31 07:00:00 16.4 31 Nordeste 54 Nordeste 0 -- -- 63
2018-03-31 06:00:00 16.7 25 Nordeste 56 Nordeste 0 -- -- 61
2018-03-31 05:00:00 16.6 28 Nordeste 47 Nordeste 0 -- -- 62
2018-03-31 04:00:00 16.6 26 Nordeste 49 Nordeste 0 -- -- 61
2018-03-31 03:00:00 16.4 24 Nordeste 53 Nordeste 0 -- -- 61
2018-03-31 02:00:00 16.6 21 Nordeste 55 Nordeste 0 -- -- 62
2018-03-31 01:00:00 16.6 31 Norte 53 Nordeste 0 -- -- 61
2018-03-31 00:00:00 16.6 23 Nordeste 49 Nordeste 0 -- -- 64
2018-03-30 23:00:00 16.5 30 Nordeste 57 Nordeste 0 -- -- 63
2018-03-30 22:00:00 16.6 27 Nordeste 50 Norte 0 -- -- 63
2018-03-30 21:00:00 16.7 26 Nordeste 51 Nordeste 0 -- -- 63
2018-03-30 20:00:00 17.2 31 Norte 59 Nordeste 0 -- -- 61
2018-03-30 19:00:00 18.2 33 Nordeste 55 Nordeste 0 -- -- 59
2018-03-30 18:00:00 18.9 33 Nordeste 55 Nordeste 0 -- -- 58
2018-03-30 17:00:00 19.1 33 Nordeste 66 Nordeste 0 -- -- 59
2018-03-30 16:00:00 19.6 33 Nordeste 63 Norte 0 -- -- 60
2018-03-30 15:00:00 19.9 37 Nordeste 62 Nordeste 0 -- -- 60
2018-03-30 14:00:00 20.2 30 Nordeste 57 Nordeste 0 -- -- 54
2018-03-30 13:00:00 19.6 33 Nordeste 58 Nordeste 0 -- -- 60
2018-03-30 12:00:00 19.4 31 Nordeste 58 Norte 0 -- -- 61
2018-03-30 11:00:00 18.8 35 Nordeste 56 Nordeste 0 -- -- 67
2018-03-30 10:00:00 18.3 32 Nordeste 53 Nordeste 0 -- -- 67
2018-03-30 09:00:00 17.5 27 Nordeste 48 Nordeste 0 -- -- 73
2018-03-30 08:00:00 17.5 25 Nordeste 50 Nordeste 0 -- -- 74
2018-03-30 07:00:00 17.5 26 Nordeste 44 Nordeste 0 -- -- 72
2018-03-30 06:00:00 17.5 24 Nordeste 47 Nordeste 0 -- -- 70
2018-03-30 05:00:00 17.4 22 Nordeste 49 Norte 0 -- -- 72
2018-03-30 04:00:00 17.4 26 Norte 46 Nordeste 0 -- -- 71
2018-03-30 03:00:00 17.5 31 Norte 55 Norte 0 -- -- 74
2018-03-30 02:00:00 17.8 27 Nordeste 51 Nordeste 0 -- -- 75
2018-03-30 01:00:00 18.2 25 Nordeste 45 Nordeste 0 -- -- 68
2018-03-30 00:00:00 18.1 30 Nordeste 49 Nordeste 0 -- -- 73
2018-03-29 23:00:00 18.2 19 Nordeste 51 Nordeste 0 -- -- 75
2018-03-29 22:00:00 18.4 33 Nordeste 55 Nordeste 0 -- -- 78
2018-03-29 21:00:00 18.6 25 Nordeste 46 Este 0 -- -- 78
2018-03-29 20:00:00 19.3 23 Nordeste 41 Norte 0 -- -- 76
2018-03-29 19:00:00 20.4 16 Nordeste 41 Nordeste 0 -- -- 71
2018-03-29 18:00:00 21 29 Nordeste 47 Nordeste 0 -- -- 71
2018-03-29 17:00:00 25.5 8 Sur 27 Nordeste 0 -- -- 53
2018-03-29 16:00:00 24.5 10 Sur 24 Sudeste 0 -- -- 64
2018-03-29 15:00:00 25.6 13 Este 28 Este 0 -- -- 54
2018-03-29 14:00:00 25.5 13 Nordeste 42 Nordeste 0 -- -- 48
2018-03-29 13:00:00 25 28 Nordeste 46 Nordeste 0 -- -- 39
2018-03-29 12:00:00 24.9 18 Nordeste 30 Nordeste 0 -- -- 42
2018-03-29 11:00:00 22.8 11 Este 32 Este 0 -- -- 60
2018-03-29 10:00:00 21.3 8 Este 33 Este 0 -- -- 65
2018-03-29 09:00:00 19.7 12 Este 27 Sur 0 -- -- 71
2018-03-29 08:00:00 19.2 8 Este 27 Sudeste 0 -- -- 74
2018-03-29 07:00:00 19.9 17 Sudeste 27 Este 0 -- -- 65
2018-03-29 06:00:00 20.6 9 Este 26 Norte 0 -- -- 58
2018-03-29 05:00:00 21.4 6 Sudeste 13 Oeste 0 -- -- 54
2018-03-29 04:00:00 23.5 4 Sudeste 13 Sudoeste 0 -- -- 30
2018-03-29 03:00:00 22.8 5 Sur 30 Este 0 -- -- 35
2018-03-29 02:00:00 27.9 11 Sudeste 29 Este 0 -- -- 19
2018-03-29 01:00:00 28.3 12 Sudeste 30 Sudeste 0 -- -- 13
2018-03-29 00:00:00 22.5 4 Noroeste 19 Nordeste 0 -- -- 31
2018-03-28 23:00:00 19.8 6 Este 13 Este 0 -- -- 67
2018-03-28 22:00:00 20.1 4 Sur 9 Sur 0 -- -- 82
2018-03-28 21:00:00 20.8 0 Calma 6 Sur 0 -- -- 78
2018-03-28 20:00:00 20.1 5 Norte 9 Noroeste 0 -- -- 81
2018-03-28 19:00:00 21.5 2 Sur 8 Noroeste 0 -- -- 76
2018-03-28 18:00:00 22.4 4 Oeste 8 Sur 0 -- -- 71
2018-03-28 17:00:00 23.4 4 Noroeste 11 Noroeste 0 -- -- 67
2018-03-28 16:00:00 23.2 4 Noroeste 8 Norte 0 -- -- 71
2018-03-28 15:00:00 23.1 4 Sudoeste 11 Sur 0 -- -- 73
2018-03-28 14:00:00 22.5 2 Oeste 6 Sudoeste 0 -- -- 72
2018-03-28 13:00:00 21.4 4 Oeste 7 Sur 0 -- -- 78
2018-03-28 12:00:00 21.4 7 Sur 12 Sur 0 -- -- 77
2018-03-28 11:00:00 20.4 8 Sur 12 Sudeste 0 -- -- 77
2018-03-28 10:00:00 19.5 6 Sur 10 Sur 0 -- -- 77
2018-03-28 09:00:00 19.4 7 Norte 14 Este 0 -- -- 73
2018-03-28 08:00:00 18.8 4 Sudeste 6 Sudeste 0 -- -- 71
2018-03-28 07:00:00 18.9 4 Sur 8 Sur 0 -- -- 76
2018-03-28 06:00:00 19.3 6 Sur 9 Sur 0 -- -- 74
2018-03-28 05:00:00 19.5 3 Sudeste 15 Este 0 -- -- 67
2018-03-28 04:00:00 19.3 7 Este 14 Sudeste 0 -- -- 62
2018-03-28 03:00:00 19.4 14 Sudeste 25 Sudeste 0 -- -- 65
2018-03-28 02:00:00 18.2 3 Este 16 Sur 0 -- -- 82
2018-03-28 01:00:00 18 2 Sudoeste 12 Sur 0 -- -- 84
2018-03-28 00:00:00 18.3 10 Sur 15 Sur 0 -- -- 82
2018-03-27 23:00:00 18.3 7 Sudeste 18 Sur 0 -- -- 82
2018-03-27 22:00:00 18.6 6 Sudeste 31 Nordeste 0 -- -- 76
2018-03-27 21:00:00 18.2 12 Este 31 Nordeste 0 -- -- 81
2018-03-27 20:00:00 18.3 15 Nordeste 28 Nordeste 0 -- -- 81
2018-03-27 19:00:00 18.5 19 Nordeste 33 Nordeste 0 -- -- 78
2018-03-27 18:00:00 18.7 17 Nordeste 42 Nordeste 0 -- -- 77
2018-03-27 17:00:00 18.8 21 Nordeste 48 Nordeste 0 -- -- 74
2018-03-27 16:00:00 19.6 26 Nordeste 54 Nordeste 0 -- -- 70
2018-03-27 15:00:00 19.8 31 Nordeste 49 Nordeste 0 -- -- 69
2018-03-27 14:00:00 20 26 Nordeste 51 Nordeste 0 -- -- 65
2018-03-27 13:00:00 19.5 31 Nordeste 55 Norte 0 -- -- 66
2018-03-27 12:00:00 19 31 Nordeste 56 Nordeste 0 -- -- 66
2018-03-27 11:00:00 18.9 33 Nordeste 60 Nordeste 0 -- -- 65
2018-03-27 10:00:00 18 26 Nordeste 48 Nordeste 0 -- -- 68
2018-03-27 09:00:00 17.3 30 Nordeste 51 Norte 0 -- -- 69
2018-03-27 08:00:00 16.8 31 Nordeste 53 Nordeste 0 -- -- 71
2018-03-27 07:00:00 16.6 24 Nordeste 51 Nordeste 0 -- -- 70
2018-03-27 06:00:00 16.5 25 Nordeste 48 Nordeste 0 -- -- 70
2018-03-27 05:00:00 16.4 24 Nordeste 47 Nordeste 0 -- -- 71
2018-03-27 04:00:00 16.7 23 Nordeste 44 Nordeste 0 -- -- 72
2018-03-27 03:00:00 16.7 23 Nordeste 44 Nordeste 0 -- -- 69
2018-03-27 02:00:00 16.8 25 Nordeste 45 Nordeste 0 -- -- 69
2018-03-27 01:00:00 16.8 23 Nordeste 50 Nordeste 0 -- -- 69
2018-03-27 00:00:00 17 23 Nordeste 44 Nordeste 0 -- -- 68
2018-03-26 23:00:00 17.1 21 Nordeste 43 Nordeste 0 -- -- 66
2018-03-26 22:00:00 17.1 26 Nordeste 44 Nordeste 0 -- -- 70
2018-03-26 21:00:00 17.2 22 Nordeste 46 Nordeste 0 -- -- 70
2018-03-26 20:00:00 17.5 25 Nordeste 48 Nordeste 0 -- -- 68
2018-03-26 19:00:00 18.3 26 Nordeste 51 Norte 0 -- -- 62
2018-03-26 18:00:00 18.2 29 Nordeste 52 Nordeste 0 -- -- 63
2018-03-26 17:00:00 18.8 33 Nordeste 66 Nordeste 0 -- -- 61
2018-03-26 16:00:00 18.6 27 Nordeste 51 Nordeste 0 -- -- 61
2018-03-26 15:00:00 18.8 25 Nordeste 40 Nordeste 0 -- -- 62
2018-03-26 14:00:00 17.8 24 Nordeste 42 Nordeste 0 -- -- 66
2018-03-26 13:00:00 18.6 23 Nordeste 43 Nordeste 0 -- -- 62
2018-03-26 12:00:00 18 18 Nordeste 40 Nordeste 0 -- -- 62
2018-03-26 11:00:00 17.6 24 Nordeste 39 Nordeste 0 -- -- 64
2018-03-26 10:00:00 17.6 19 Nordeste 36 Nordeste 0 -- -- 68
2018-03-26 09:00:00 17.3 17 Nordeste 41 Nordeste 0 -- -- 65
2018-03-26 08:00:00 17.3 23 Nordeste 38 Nordeste 0 -- -- 66
2018-03-26 07:00:00 17.6 15 Este 35 Nordeste 0 -- -- 65
2018-03-26 06:00:00 17.3 18 Nordeste 45 Nordeste 0 -- -- 78
2018-03-26 05:00:00 17.6 22 Nordeste 45 Nordeste 0.2 -- -- 81
2018-03-26 04:00:00 17.8 20 Nordeste 36 Nordeste 0 -- -- 84
2018-03-26 03:00:00 17.9 18 Nordeste 33 Nordeste 0.2 -- -- 83
2018-03-26 02:00:00 18.7 15 Nordeste 34 Nordeste 0 -- -- 70
2018-03-26 01:00:00 18.4 18 Nordeste 37 Nordeste 0 -- -- 76
2018-03-26 00:00:00 18.1 18 Nordeste 32 Nordeste 0 -- -- 78
2018-03-25 23:00:00 17.7 17 Nordeste 40 Nordeste 0 -- -- 79
2018-03-25 22:00:00 18 20 Nordeste 36 Nordeste 0 -- -- 74
2018-03-25 21:00:00 17.8 21 Nordeste 37 Norte 0 -- -- 74
2018-03-25 20:00:00 18.1 20 Nordeste 36 Nordeste 0 -- -- 70
2018-03-25 19:00:00 18.4 18 Nordeste 32 Nordeste 0 -- -- 71
2018-03-25 18:00:00 18.6 18 Nordeste 36 Nordeste 0 -- -- 64
2018-03-25 17:00:00 18.4 18 Nordeste 37 Nordeste 0 -- -- 68
2018-03-25 16:00:00 18.8 16 Nordeste 35 Nordeste 0 -- -- 66
2018-03-25 15:00:00 18.1 19 Nordeste 37 Nordeste 0 -- -- 68
2018-03-25 14:00:00 17.7 22 Nordeste 45 Este 0 -- -- 69
2018-03-25 13:00:00 18.3 20 Nordeste 41 Norte 0 -- -- 64
2018-03-25 12:00:00 18.2 22 Nordeste 42 Nordeste 0 -- -- 63
2018-03-25 11:00:00 18.4 20 Nordeste 42 Nordeste 0 -- -- 61
2018-03-25 10:00:00 17.3 21 Nordeste 39 Nordeste 0 -- -- 64
2018-03-25 09:00:00 17.2 22 Nordeste 49 Nordeste 0 -- -- 63
2018-03-25 08:00:00 17.1 24 Nordeste 37 Nordeste 0 -- -- 65
2018-03-25 07:00:00 17 18 Nordeste 42 Nordeste 0 -- -- 66
2018-03-25 06:00:00 16.9 19 Nordeste 38 Nordeste 0 -- -- 65
2018-03-25 05:00:00 16.9 22 Nordeste 39 Nordeste 0 -- -- 64
2018-03-25 04:00:00 17.1 21 Nordeste 35 Nordeste 0 -- -- 65
2018-03-25 00:00:00 17.8 18 Nordeste 31 Nordeste 0 -- -- 76
2018-03-24 23:00:00 18 18 Nordeste 36 Norte 0 -- -- 77
2018-03-24 22:00:00 18.4 18 Nordeste 30 Nordeste 0 -- -- 77
2018-03-24 21:00:00 18.5 21 Nordeste 34 Norte 0 -- -- 75
2018-03-24 20:00:00 18.8 14 Nordeste 30 Nordeste 0 -- -- 75
2018-03-24 19:00:00 19 15 Nordeste 35 Nordeste 0 -- -- 71
2018-03-24 18:00:00 20.2 18 Nordeste 36 Nordeste 0 -- -- 65
2018-03-24 17:00:00 19.3 22 Nordeste 35 Nordeste 0 -- -- 74
2018-03-24 16:00:00 20.4 20 Norte 33 Norte 0 -- -- 67
2018-03-24 15:00:00 20.1 23 Norte 39 Norte 0 -- -- 68
2018-03-24 14:00:00 21.2 17 Nordeste 38 Nordeste 0 -- -- 55
2018-03-24 13:00:00 21 19 Nordeste 41 Este 0 -- -- 51
2018-03-24 12:00:00 19.5 19 Este 35 Nordeste 0 -- -- 63
2018-03-24 11:00:00 18.9 20 Nordeste 39 Nordeste 0 -- -- 65
2018-03-24 10:00:00 18.4 18 Nordeste 36 Nordeste 0 -- -- 69
2018-03-24 09:00:00 18.3 14 Nordeste 31 Este 0 -- -- 69
2018-03-24 08:00:00 17.9 15 Nordeste 33 Este 0 -- -- 70
2018-03-24 07:00:00 17.6 14 Este 32 Este 0 -- -- 69
2018-03-24 06:00:00 17.5 11 Este 25 Este 0 -- -- 69
2018-03-24 05:00:00 17.5 12 Nordeste 24 Norte 0 -- -- 71
2018-03-24 04:00:00 17.5 15 Nordeste 29 Nordeste 0 -- -- 69
2018-03-24 03:00:00 17.5 13 Nordeste 26 Nordeste 0 -- -- 66
2018-03-24 02:00:00 17.5 14 Nordeste 32 Nordeste 0 -- -- 67
2018-03-24 01:00:00 17.5 15 Nordeste 29 Nordeste 0 -- -- 64
2018-03-24 00:00:00 17.6 16 Nordeste 37 Nordeste 0 -- -- 64
2018-03-23 23:00:00 17.4 21 Nordeste 38 Este 0 -- -- 68
2018-03-23 22:00:00 17.5 18 Nordeste 36 Nordeste 0 -- -- 68
2018-03-23 21:00:00 17.2 21 Nordeste 37 Este 0 -- -- 67
2018-03-23 20:00:00 17 23 Nordeste 36 Nordeste 0 -- -- 68
2018-03-23 19:00:00 17.3 25 Nordeste 43 Nordeste 0 -- -- 64
2018-03-23 18:00:00 18.4 26 Nordeste 42 Nordeste 0 -- -- 60
2018-03-23 17:00:00 18.7 27 Nordeste 43 Nordeste 0 -- -- 58
2018-03-23 16:00:00 19.1 23 Nordeste 48 Nordeste 0 -- -- 54
2018-03-23 15:00:00 18.9 28 Norte 43 Norte 0 -- -- 57
2018-03-23 14:00:00 19.1 24 Norte 42 Nordeste 0 -- -- 55
2018-03-23 13:00:00 19.1 19 Nordeste 41 Norte 0 -- -- 56
2018-03-23 12:00:00 18.6 20 Nordeste 43 Norte 0 -- -- 56
2018-03-23 11:00:00 18.2 27 Norte 46 Norte 0 -- -- 60
2018-03-23 10:00:00 17.7 26 Norte 44 Norte 0 -- -- 60
2018-03-23 09:00:00 17.2 21 Nordeste 40 Nordeste 0 -- -- 63
2018-03-23 08:00:00 16.1 15 Nordeste 40 Nordeste 0 -- -- 65
2018-03-23 07:00:00 15.6 21 Nordeste 41 Nordeste 0 -- -- 68
2018-03-23 06:00:00 15.5 22 Nordeste 39 Nordeste 0 -- -- 68
2018-03-23 05:00:00 15.4 21 Nordeste 42 Nordeste 0 -- -- 68
2018-03-23 04:00:00 15.5 22 Nordeste 42 Nordeste 0 -- -- 68
2018-03-23 03:00:00 15.6 26 Nordeste 41 Nordeste 0 -- -- 67
2018-03-23 02:00:00 15.6 23 Nordeste 43 Nordeste 0 -- -- 66
2018-03-23 01:00:00 15.8 24 Nordeste 44 Nordeste 0 -- -- 65
2018-03-23 00:00:00 16 21 Nordeste 44 Nordeste 0 -- -- 65